Disputanta, Virginia
Current Conditions -  °F | °C
As of 5:54 PM on Thursday 20 Nov 2014 (Local Time) from KAKQ Reporting Station
Clear Clear  
Wind Chill: 49°   Ceiling: Unl
Heat Index: 49°   Visibility: 10mi
Dew Point: 27°   Wind: 3mph
Humidity: 43%   Direction: 180°S
Pressure: 30.01"   Gusts: NA
Location:  37.12°N, 77.23°W
Report Text: KAKQ 202254Z AUTO 18003KT 10SM CLR 09/M03 A3001 RMK AO2 SLP163 T00941028 TSNO
Loading
Personal Weather Stations






























Interactive Weather Map New forecast layout! Learn more

10-Day Weather Forecast

Advertisements
Track Severe Weather on mobile